Time;durP1;ratioP1;P1;durP2;ratioP2;P2;SDS_P1;SDS_P2;PMS_P1;PMS_P2;Temp;Humidity;BMP_temperature;BMP_pressure;BME280_temperature;BME280_humidity;BME280_pressure;Samples;Min_cycle;Max_cycle;Signal;HPM_P1;HPM_P2
2023/08/26 00:01:33;;;;;;;39.30;35.00;;;;;;;;;;5020876;28;20454;-84
2023/08/26 00:03:59;;;;;;;39.43;35.20;;;;;;;;;;5022750;28;20457;-86
2023/08/26 00:06:25;;;;;;;42.77;37.23;;;;;;;;;;5020869;28;20435;-85
2023/08/26 00:08:52;;;;;;;42.77;36.47;;;;;;;;;;5021193;28;20549;-84
2023/08/26 00:11:18;;;;;;;42.50;37.13;;;;;;;;;;5022802;28;20978;-85
2023/08/26 00:13:44;;;;;;;43.57;37.63;;;;;;;;;;5020716;28;20484;-83
2023/08/26 00:16:12;;;;;;;38.93;34.73;;;;;;;;;;5024489;28;20504;-84
2023/08/26 00:18:38;;;;;;;39.00;34.93;;;;;;;;;;5021083;28;21289;-84
2023/08/26 00:21:04;;;;;;;36.80;32.80;;;;;;;;;;5022183;28;20450;-85
2023/08/26 00:23:31;;;;;;;38.77;34.57;;;;;;;;;;5019730;28;20474;-85
2023/08/26 00:25:57;;;;;;;37.27;33.27;;;;;;;;;;5023247;28;20429;-85
2023/08/26 00:28:23;;;;;;;38.80;34.40;;;;;;;;;;5020598;28;20454;-84
2023/08/26 00:30:58;;;;;;;41.70;33.07;;;;;;;;;;5020771;28;20502;-84
2023/08/26 00:33:24;;;;;;;38.53;32.17;;;;;;;;;;5021356;28;20447;-84
2023/08/26 00:35:50;;;;;;;35.07;31.37;;;;;;;;;;5021344;28;20548;-85
2023/08/26 00:38:16;;;;;;;34.53;30.67;;;;;;;;;;5022773;28;20446;-83
2023/08/26 00:40:42;;;;;;;31.77;28.37;;;;;;;;;;5007952;28;20412;-87
2023/08/26 00:43:09;;;;;;;31.50;27.97;;;;;;;;;;5022684;28;20486;-88
2023/08/26 00:45:35;;;;;;;28.63;25.83;;;;;;;;;;5024042;28;20990;-86
2023/08/26 00:48:01;;;;;;;30.63;27.50;;;;;;;;;;5024593;28;20525;-87
2023/08/26 00:50:28;;;;;;;29.40;26.40;;;;;;;;;;5021322;28;20447;-86
2023/08/26 00:52:54;;;;;;;29.97;26.87;;;;;;;;;;5023216;28;20508;-85
2023/08/26 00:55:20;;;;;;;29.80;26.60;;;;;;;;;;5025911;28;20469;-84
2023/08/26 00:57:46;;;;;;;25.97;23.37;;;;;;;;;;5023621;28;20442;-83
2023/08/26 01:00:13;;;;;;;32.27;26.47;;;;;;;;;;5014504;28;20493;-84
2023/08/26 01:02:39;;;;;;;29.80;26.70;;;;;;;;;;5020426;28;20512;-84
2023/08/26 01:05:08;;;;;;;29.67;26.67;;;;;;;;;;5018509;28;20430;-84
2023/08/26 01:07:34;;;;;;;29.60;26.63;;;;;;;;;;5021723;28;20813;-84
2023/08/26 01:10:00;;;;;;;26.90;24.30;;;;;;;;;;5013388;28;20428;-85
2023/08/26 01:12:39;;;;;;;27.10;24.50;;;;;;;;;;5019024;28;20508;-83
2023/08/26 01:15:10;;;;;;;30.00;25.70;;;;;;;;;;5016147;28;20498;-85
2023/08/26 01:17:36;;;;;;;26.63;23.83;;;;;;;;;;5021093;28;20537;-85
2023/08/26 01:20:03;;;;;;;25.13;22.87;;;;;;;;;;5013857;28;20428;-83
2023/08/26 01:22:30;;;;;;;23.97;21.77;;;;;;;;;;5020631;28;20479;-85
2023/08/26 01:24:56;;;;;;;21.07;19.27;;;;;;;;;;5015560;28;20508;-85
2023/08/26 01:27:22;;;;;;;21.80;19.63;;;;;;;;;;5021371;28;20466;-84
2023/08/26 01:29:48;;;;;;;20.87;18.80;;;;;;;;;;5024959;28;20443;-85
2023/08/26 01:32:26;;;;;;;22.70;20.70;;;;;;;;;;5024438;28;20506;-84
2023/08/26 01:34:55;;;;;;;23.43;19.93;;;;;;;;;;5021046;28;20459;-84
2023/08/26 01:37:22;;;;;;;23.63;19.43;;;;;;;;;;5026472;28;20446;-84
2023/08/26 01:39:49;;;;;;;17.37;15.97;;;;;;;;;;5021301;28;20805;-82
2023/08/26 01:42:19;;;;;;;21.50;19.20;;;;;;;;;;5026875;28;20514;-84
2023/08/26 01:44:46;;;;;;;17.73;16.20;;;;;;;;;;5038507;28;20415;-84
2023/08/26 01:47:12;;;;;;;21.93;18.53;;;;;;;;;;5042718;28;20518;-83
2023/08/26 01:49:38;;;;;;;19.50;17.70;;;;;;;;;;5031124;28;20762;-84
2023/08/26 01:52:04;;;;;;;20.60;18.57;;;;;;;;;;5025989;28;20470;-85
2023/08/26 01:54:30;;;;;;;19.87;17.87;;;;;;;;;;5020461;28;20439;-86
2023/08/26 01:56:56;;;;;;;20.67;18.07;;;;;;;;;;5031847;28;20434;-84
2023/08/26 01:59:22;;;;;;;18.70;16.97;;;;;;;;;;5033795;28;20437;-85
2023/08/26 02:01:48;;;;;;;19.73;17.73;;;;;;;;;;5011732;28;20519;-83
2023/08/26 02:04:14;;;;;;;20.07;18.10;;;;;;;;;;5018407;28;20525;-84
2023/08/26 02:06:40;;;;;;;19.23;17.33;;;;;;;;;;5025169;28;20442;-85
2023/08/26 02:09:09;;;;;;;17.77;16.00;;;;;;;;;;5018729;28;20814;-83
2023/08/26 02:11:35;;;;;;;16.67;15.10;;;;;;;;;;5010807;28;20532;-85
2023/08/26 02:14:01;;;;;;;15.83;14.40;;;;;;;;;;5014341;28;20486;-84
2023/08/26 02:16:27;;;;;;;15.37;13.97;;;;;;;;;;5019848;28;20458;-83
2023/08/26 02:18:53;;;;;;;13.43;12.13;;;;;;;;;;5022302;28;20717;-85
2023/08/26 02:21:19;;;;;;;12.83;11.50;;;;;;;;;;5019299;28;22439;-84
2023/08/26 02:23:45;;;;;;;11.33;10.30;;;;;;;;;;5011250;28;20517;-84
2023/08/26 02:26:11;;;;;;;7.83;7.40;;;;;;;;;;5015127;28;20431;-84
2023/08/26 02:28:37;;;;;;;6.27;5.90;;;;;;;;;;5018713;28;20517;-85
2023/08/26 02:31:03;;;;;;;3.97;3.87;;;;;;;;;;5022942;28;20505;-83
2023/08/26 02:33:30;;;;;;;4.83;4.20;;;;;;;;;;5021790;28;20632;-84
2023/08/26 02:35:55;;;;;;;3.37;3.10;;;;;;;;;;5024364;28;20477;-84
2023/08/26 02:38:21;;;;;;;2.60;2.50;;;;;;;;;;5013308;28;20447;-83
2023/08/26 02:40:54;;;;;;;2.63;2.50;;;;;;;;;;5015345;28;20447;-84
2023/08/26 02:43:21;;;;;;;5.20;3.00;;;;;;;;;;5015415;28;20459;-83
2023/08/26 02:45:47;;;;;;;2.63;2.40;;;;;;;;;;5040197;28;21045;-84
2023/08/26 02:48:13;;;;;;;2.67;2.47;;;;;;;;;;5023353;28;21238;-85
2023/08/26 02:50:39;;;;;;;2.73;2.43;;;;;;;;;;5010408;28;20468;-84
2023/08/26 02:53:05;;;;;;;2.47;2.47;;;;;;;;;;5021596;28;21003;-85
2023/08/26 02:55:31;;;;;;;5.63;3.63;;;;;;;;;;5023555;28;20955;-84
2023/08/26 02:57:57;;;;;;;13.27;4.00;;;;;;;;;;5023627;28;20454;-85
2023/08/26 03:00:23;;;;;;;3.90;3.60;;;;;;;;;;5015577;28;20455;-83
2023/08/26 03:02:48;;;;;;;4.07;3.87;;;;;;;;;;5015855;28;20532;-84
2023/08/26 03:05:14;;;;;;;5.17;3.13;;;;;;;;;;5010481;28;21271;-84
2023/08/26 03:07:40;;;;;;;3.83;3.53;;;;;;;;;;5022386;28;20451;-83
2023/08/26 03:10:07;;;;;;;4.27;3.90;;;;;;;;;;5020669;28;20430;-84
2023/08/26 03:12:33;;;;;;;4.77;4.30;;;;;;;;;;5018472;28;20446;-84
2023/08/26 03:14:59;;;;;;;3.37;3.00;;;;;;;;;;5022164;28;20462;-84
2023/08/26 03:17:25;;;;;;;2.70;2.60;;;;;;;;;;5017984;28;20915;-84
2023/08/26 03:19:51;;;;;;;3.47;2.83;;;;;;;;;;5022507;28;20495;-78
2023/08/26 03:22:17;;;;;;;3.10;2.97;;;;;;;;;;5023881;28;20864;-85
2023/08/26 03:24:42;;;;;;;8.40;2.50;;;;;;;;;;5024026;28;20426;-84
2023/08/26 03:27:08;;;;;;;2.60;2.50;;;;;;;;;;5022447;28;20442;-84
2023/08/26 03:29:34;;;;;;;2.33;2.13;;;;;;;;;;5024365;28;20517;-84
2023/08/26 03:32:00;;;;;;;2.97;2.30;;;;;;;;;;5024026;28;20556;-84
2023/08/26 03:34:26;;;;;;;2.30;2.20;;;;;;;;;;5025691;28;20525;-84
2023/08/26 03:36:52;;;;;;;2.83;2.63;;;;;;;;;;5022590;28;20462;-84
2023/08/26 03:39:18;;;;;;;6.27;2.80;;;;;;;;;;5022790;28;20430;-84
2023/08/26 03:41:44;;;;;;;7.33;3.37;;;;;;;;;;5022730;28;20460;-83
2023/08/26 03:44:10;;;;;;;2.50;2.40;;;;;;;;;;5023066;28;20430;-82
2023/08/26 03:46:36;;;;;;;3.90;3.60;;;;;;;;;;5021278;28;20515;-84
2023/08/26 03:49:02;;;;;;;6.60;2.67;;;;;;;;;;5025806;28;20443;-84
2023/08/26 03:51:28;;;;;;;4.77;2.97;;;;;;;;;;5022612;28;20457;-82
2023/08/26 03:53:54;;;;;;;4.23;3.00;;;;;;;;;;5021166;28;20419;-83
2023/08/26 03:56:20;;;;;;;3.03;2.90;;;;;;;;;;5020294;28;20956;-83
2023/08/26 03:58:47;;;;;;;8.53;3.00;;;;;;;;;;5022189;28;20426;-82
2023/08/26 04:01:14;;;;;;;5.90;2.80;;;;;;;;;;5021933;28;20825;-83
2023/08/26 04:03:42;;;;;;;3.00;2.80;;;;;;;;;;5021941;28;20476;-83
2023/08/26 04:06:08;;;;;;;3.43;2.90;;;;;;;;;;5022151;28;20829;-83
2023/08/26 04:08:34;;;;;;;3.37;3.17;;;;;;;;;;5026884;28;21116;-83
2023/08/26 04:11:01;;;;;;;5.20;3.23;;;;;;;;;;5020620;28;20431;-84
2023/08/26 04:13:28;;;;;;;2.70;2.50;;;;;;;;;;5024458;28;20467;-83
2023/08/26 04:15:56;;;;;;;5.23;3.37;;;;;;;;;;5022215;28;20606;-84
2023/08/26 04:18:22;;;;;;;3.30;3.13;;;;;;;;;;5021133;28;21335;-82
2023/08/26 04:20:48;;;;;;;3.00;2.80;;;;;;;;;;5018680;28;20445;-83
2023/08/26 04:23:14;;;;;;;3.40;3.30;;;;;;;;;;5023894;28;20430;-83
2023/08/26 04:25:41;;;;;;;5.27;2.40;;;;;;;;;;5019987;28;20468;-83
2023/08/26 04:28:08;;;;;;;7.60;3.13;;;;;;;;;;5016773;28;20649;-82
2023/08/26 04:30:34;;;;;;;4.00;3.20;;;;;;;;;;5018273;28;20960;-83
2023/08/26 04:33:06;;;;;;;2.90;2.70;;;;;;;;;;5019905;28;20533;-83
2023/08/26 04:35:33;;;;;;;4.67;3.10;;;;;;;;;;5023980;28;20469;-83
2023/08/26 04:37:59;;;;;;;5.50;2.90;;;;;;;;;;5020840;28;20436;-83
2023/08/26 04:40:25;;;;;;;2.80;2.67;;;;;;;;;;5022109;28;20435;-83
2023/08/26 04:42:51;;;;;;;4.50;3.93;;;;;;;;;;5021568;28;20438;-83
2023/08/26 04:45:17;;;;;;;2.90;2.80;;;;;;;;;;5020987;28;20427;-83
2023/08/26 04:47:43;;;;;;;9.37;2.90;;;;;;;;;;5020395;28;20867;-83
2023/08/26 04:50:11;;;;;;;3.37;3.00;;;;;;;;;;5021739;28;20529;-82
2023/08/26 04:52:39;;;;;;;3.80;3.10;;;;;;;;;;5020567;28;20515;-83
2023/08/26 04:55:05;;;;;;;3.43;3.10;;;;;;;;;;5023895;28;20944;-83
2023/08/26 04:57:31;;;;;;;5.00;2.87;;;;;;;;;;5022895;28;20427;-83
2023/08/26 04:59:58;;;;;;;2.80;2.60;;;;;;;;;;5018904;28;20457;-83
2023/08/26 05:02:23;;;;;;;3.97;3.00;;;;;;;;;;5023118;28;20446;-83
2023/08/26 05:04:50;;;;;;;2.87;2.67;;;;;;;;;;5017176;28;21266;-82
2023/08/26 05:07:16;;;;;;;3.93;3.63;;;;;;;;;;5022319;28;20427;-82
2023/08/26 05:09:42;;;;;;;4.33;3.13;;;;;;;;;;5026183;28;20541;-83
2023/08/26 05:12:08;;;;;;;4.80;3.03;;;;;;;;;;5033682;28;20449;-83
2023/08/26 05:14:35;;;;;;;4.13;3.37;;;;;;;;;;5032330;28;20480;-82
2023/08/26 05:17:01;;;;;;;6.00;3.30;;;;;;;;;;5025401;28;20461;-82
2023/08/26 05:19:27;;;;;;;3.13;2.93;;;;;;;;;;5025579;28;21009;-83
2023/08/26 05:21:53;;;;;;;2.83;2.73;;;;;;;;;;5024549;28;20434;-83
2023/08/26 05:24:18;;;;;;;3.90;3.53;;;;;;;;;;5020779;28;20445;-82
2023/08/26 05:26:44;;;;;;;3.10;2.90;;;;;;;;;;5023696;28;20451;-83
2023/08/26 05:29:10;;;;;;;4.40;3.53;;;;;;;;;;5020422;28;20532;-82
2023/08/26 05:31:37;;;;;;;3.30;3.20;;;;;;;;;;5021868;28;20513;-84
2023/08/26 05:34:03;;;;;;;3.20;3.00;;;;;;;;;;5022375;28;20438;-83
2023/08/26 05:36:29;;;;;;;5.67;3.33;;;;;;;;;;5026648;28;20819;-83
2023/08/26 05:38:55;;;;;;;3.17;2.70;;;;;;;;;;5028664;28;20473;-84
2023/08/26 05:41:21;;;;;;;2.77;2.67;;;;;;;;;;5030337;28;20415;-85
2023/08/26 05:43:47;;;;;;;3.13;2.70;;;;;;;;;;5023078;28;20439;-83
2023/08/26 05:46:13;;;;;;;8.57;4.17;;;;;;;;;;5022611;28;20426;-85
2023/08/26 05:48:39;;;;;;;3.33;3.13;;;;;;;;;;5022545;28;20443;-85
2023/08/26 05:51:05;;;;;;;3.23;2.70;;;;;;;;;;5026235;28;20426;-85
2023/08/26 05:53:31;;;;;;;3.33;3.13;;;;;;;;;;5020351;28;20600;-86
2023/08/26 05:55:58;;;;;;;4.23;2.80;;;;;;;;;;5023493;28;20469;-85
2023/08/26 05:58:24;;;;;;;3.00;2.90;;;;;;;;;;5017767;28;20502;-82
2023/08/26 06:00:51;;;;;;;3.20;2.93;;;;;;;;;;5019514;28;20812;-85
2023/08/26 06:03:17;;;;;;;3.70;2.43;;;;;;;;;;5021586;28;20521;-86
2023/08/26 06:05:43;;;;;;;2.50;2.40;;;;;;;;;;5023762;28;20454;-85
2023/08/26 06:08:09;;;;;;;2.77;2.50;;;;;;;;;;5020783;28;20489;-84
2023/08/26 06:10:35;;;;;;;3.23;2.93;;;;;;;;;;5023369;28;20450;-83
2023/08/26 06:13:01;;;;;;;3.40;2.37;;;;;;;;;;5020712;28;20447;-83
2023/08/26 06:15:27;;;;;;;2.17;1.97;;;;;;;;;;5016543;28;20501;-84
2023/08/26 06:17:53;;;;;;;2.67;2.47;;;;;;;;;;5013778;28;20438;-82
2023/08/26 06:20:20;;;;;;;3.10;2.10;;;;;;;;;;5019908;28;20529;-85
2023/08/26 06:22:46;;;;;;;4.10;2.43;;;;;;;;;;5009108;28;20538;-83
2023/08/26 06:25:12;;;;;;;1.93;1.80;;;;;;;;;;5016272;28;20446;-84
2023/08/26 06:27:41;;;;;;;2.20;2.03;;;;;;;;;;5027053;28;20777;-87
2023/08/26 06:30:08;;;;;;;2.30;2.27;;;;;;;;;;5014351;28;20443;-86
2023/08/26 06:32:34;;;;;;;4.63;2.40;;;;;;;;;;5022704;28;20531;-84
2023/08/26 06:35:01;;;;;;;2.93;2.73;;;;;;;;;;5021070;28;20475;-86
2023/08/26 06:37:27;;;;;;;1.83;1.83;;;;;;;;;;5023692;28;20434;-85
2023/08/26 06:39:53;;;;;;;2.30;1.97;;;;;;;;;;5021437;28;20439;-83
2023/08/26 06:42:18;;;;;;;2.90;2.63;;;;;;;;;;5020423;28;20493;-86
2023/08/26 06:44:44;;;;;;;2.50;1.87;;;;;;;;;;5017704;28;20956;-84
2023/08/26 06:47:10;;;;;;;1.83;1.80;;;;;;;;;;5021595;28;20481;-83
2023/08/26 06:49:36;;;;;;;3.83;2.70;;;;;;;;;;5015343;28;20446;-83
2023/08/26 06:52:03;;;;;;;1.20;1.20;;;;;;;;;;5021369;28;20460;-85
2023/08/26 06:54:29;;;;;;;2.40;1.73;;;;;;;;;;5021673;28;20454;-84
2023/08/26 06:56:55;;;;;;;1.93;1.73;;;;;;;;;;5023310;28;20473;-85
2023/08/26 06:59:21;;;;;;;1.33;1.33;;;;;;;;;;5021489;28;20476;-82
2023/08/26 07:01:47;;;;;;;3.60;1.30;;;;;;;;;;5019748;28;20561;-83
2023/08/26 07:04:13;;;;;;;2.10;2.00;;;;;;;;;;5022281;28;20485;-85
2023/08/26 07:06:39;;;;;;;1.73;1.63;;;;;;;;;;5021922;28;20463;-83
2023/08/26 07:09:05;;;;;;;2.00;1.90;;;;;;;;;;5021115;28;20446;-79
2023/08/26 07:11:31;;;;;;;2.03;1.50;;;;;;;;;;5023690;28;20461;-78
2023/08/26 07:13:58;;;;;;;1.63;1.50;;;;;;;;;;5019772;28;20770;-81
2023/08/26 07:16:25;;;;;;;2.30;1.17;;;;;;;;;;5023115;28;20991;-80
2023/08/26 07:18:51;;;;;;;2.20;1.73;;;;;;;;;;5020607;28;20526;-79
2023/08/26 07:21:17;;;;;;;1.20;1.20;;;;;;;;;;5019448;28;20442;-80
2023/08/26 07:23:43;;;;;;;1.40;1.30;;;;;;;;;;5018301;28;20802;-80
2023/08/26 07:26:09;;;;;;;3.03;1.10;;;;;;;;;;5021094;28;20766;-82
2023/08/26 07:28:35;;;;;;;1.90;1.67;;;;;;;;;;5019850;28;20530;-80
2023/08/26 07:31:02;;;;;;;1.20;1.20;;;;;;;;;;5020414;28;20431;-80
2023/08/26 07:33:28;;;;;;;2.53;1.37;;;;;;;;;;5019532;28;20519;-80
2023/08/26 07:36:08;;;;;;;3.33;1.53;;;;;;;;;;5019711;28;20465;-81
2023/08/26 07:38:34;;;;;;;1.90;1.80;;;;;;;;;;5020121;28;20496;-80
2023/08/26 07:41:03;;;;;;;3.57;3.40;;;;;;;;;;5021882;28;20432;-81
2023/08/26 07:43:30;;;;;;;4.40;2.30;;;;;;;;;;5019816;28;20525;-81
2023/08/26 07:45:56;;;;;;;1.50;1.50;;;;;;;;;;5021534;28;20516;-80
2023/08/26 07:48:22;;;;;;;1.90;1.37;;;;;;;;;;5022759;28;20445;-83
2023/08/26 07:50:48;;;;;;;2.03;1.83;;;;;;;;;;5026286;28;20507;-85
2023/08/26 07:53:14;;;;;;;1.60;1.50;;;;;;;;;;5024802;28;20442;-85
2023/08/26 07:55:43;;;;;;;0.97;0.97;;;;;;;;;;5028030;28;21218;-84
2023/08/26 07:58:09;;;;;;;1.43;1.33;;;;;;;;;;5029953;28;20431;-84
2023/08/26 08:00:36;;;;;;;1.73;1.30;;;;;;;;;;5030853;28;20469;-82
2023/08/26 08:03:02;;;;;;;1.70;1.60;;;;;;;;;;5025793;28;20426;-83
2023/08/26 08:05:28;;;;;;;1.50;1.50;;;;;;;;;;5028175;28;20427;-83
2023/08/26 08:07:54;;;;;;;1.10;1.00;;;;;;;;;;5026032;28;20875;-83
2023/08/26 08:10:20;;;;;;;1.70;1.60;;;;;;;;;;5023562;28;20453;-85
2023/08/26 08:12:46;;;;;;;1.30;1.30;;;;;;;;;;5024572;28;20440;-83
2023/08/26 08:15:12;;;;;;;1.60;1.30;;;;;;;;;;5023423;28;20462;-82
2023/08/26 08:17:38;;;;;;;1.67;1.30;;;;;;;;;;5024372;28;20480;-86
2023/08/26 08:20:05;;;;;;;1.23;1.23;;;;;;;;;;5023202;28;20437;-84
2023/08/26 08:22:36;;;;;;;1.33;1.30;;;;;;;;;;5025411;28;20434;-85
2023/08/26 08:25:03;;;;;;;2.10;1.33;;;;;;;;;;5021623;28;20542;-85
2023/08/26 08:27:29;;;;;;;2.20;1.20;;;;;;;;;;5022390;28;20470;-86
2023/08/26 08:29:57;;;;;;;2.17;1.90;;;;;;;;;;5019819;28;20516;-79
2023/08/26 08:32:23;;;;;;;1.30;1.30;;;;;;;;;;5032004;28;20464;-88
2023/08/26 08:34:49;;;;;;;1.00;1.00;;;;;;;;;;5030085;28;20444;-84
2023/08/26 08:37:15;;;;;;;2.47;2.37;;;;;;;;;;5027781;28;20492;-85
2023/08/26 08:39:41;;;;;;;2.00;1.20;;;;;;;;;;5028360;28;20422;-87
2023/08/26 08:42:09;;;;;;;1.27;1.27;;;;;;;;;;5033533;28;20518;-85
2023/08/26 08:44:36;;;;;;;1.13;1.13;;;;;;;;;;5037011;28;20456;-84
2023/08/26 08:47:06;;;;;;;1.63;1.50;;;;;;;;;;5029458;28;20478;-85
2023/08/26 08:49:32;;;;;;;1.07;0.97;;;;;;;;;;5039334;28;20507;-84
2023/08/26 08:51:59;;;;;;;2.13;1.47;;;;;;;;;;5039653;28;20456;-83
2023/08/26 08:54:29;;;;;;;3.80;1.60;;;;;;;;;;5030367;28;20446;-84
2023/08/26 08:56:56;;;;;;;1.57;1.57;;;;;;;;;;5032473;28;20561;-86
2023/08/26 08:59:22;;;;;;;1.63;1.40;;;;;;;;;;5035190;28;20946;-84
2023/08/26 09:01:48;;;;;;;1.40;1.30;;;;;;;;;;5037735;28;20534;-85
2023/08/26 09:04:14;;;;;;;1.50;1.40;;;;;;;;;;5028993;28;20450;-87
2023/08/26 09:06:43;;;;;;;1.03;1.03;;;;;;;;;;5034336;28;20441;-86
2023/08/26 09:09:12;;;;;;;1.40;1.30;;;;;;;;;;5030159;28;20454;-82
2023/08/26 09:11:38;;;;;;;1.23;1.10;;;;;;;;;;5028286;28;20972;-84
2023/08/26 09:14:07;;;;;;;7.20;2.00;;;;;;;;;;5022703;28;20512;-82
2023/08/26 09:16:37;;;;;;;1.00;1.00;;;;;;;;;;5023219;28;20965;-84
2023/08/26 09:19:05;;;;;;;1.20;1.17;;;;;;;;;;5021351;28;20490;-82
2023/08/26 09:21:31;;;;;;;1.73;1.63;;;;;;;;;;5017016;28;20454;-79
2023/08/26 09:23:57;;;;;;;2.00;1.30;;;;;;;;;;5019019;28;20442;-80
2023/08/26 09:26:24;;;;;;;1.50;1.40;;;;;;;;;;5019559;28;20463;-80
2023/08/26 09:32:04;;;;;;;1.80;1.50;;;;;;;;;;5126738;22;20449;-93
2023/08/26 09:34:44;;;;;;;3.87;1.70;;;;;;;;;;5031577;22;20501;-74
2023/08/26 09:37:10;;;;;;;1.20;1.10;;;;;;;;;;5010982;28;20464;-75
2023/08/26 09:39:46;;;;;;;2.03;1.93;;;;;;;;;;5016387;28;20417;-73
2023/08/26 09:42:12;;;;;;;3.13;2.93;;;;;;;;;;5037009;28;20579;-74
2023/08/26 09:44:41;;;;;;;1.20;1.20;;;;;;;;;;5029180;28;20450;-75
2023/08/26 09:47:07;;;;;;;1.57;1.40;;;;;;;;;;5039645;28;20456;-73
2023/08/26 09:49:35;;;;;;;1.60;1.47;;;;;;;;;;5023806;22;20494;-72
2023/08/26 09:52:01;;;;;;;1.93;1.57;;;;;;;;;;5025557;28;20547;-74
2023/08/26 09:54:28;;;;;;;1.73;1.60;;;;;;;;;;5027737;28;20441;-74
2023/08/26 09:56:54;;;;;;;2.20;2.00;;;;;;;;;;5026013;28;20485;-75
2023/08/26 09:59:20;;;;;;;1.10;1.10;;;;;;;;;;5027576;28;20437;-73
2023/08/26 10:01:46;;;;;;;0.70;0.70;;;;;;;;;;5025596;28;20458;-72
2023/08/26 10:04:21;;;;;;;1.13;1.13;;;;;;;;;;5030784;28;20491;-74
2023/08/26 10:06:53;;;;;;;1.10;1.10;;;;;;;;;;5025054;28;20466;-72
2023/08/26 10:09:19;;;;;;;0.93;0.93;;;;;;;;;;5032502;28;21316;-72
2023/08/26 10:11:48;;;;;;;3.30;1.13;;;;;;;;;;5032061;28;20539;-71
2023/08/26 10:14:15;;;;;;;1.40;1.30;;;;;;;;;;5028825;28;20453;-74
2023/08/26 10:16:42;;;;;;;1.23;0.80;;;;;;;;;;5038054;28;20469;-74
2023/08/26 10:19:11;;;;;;;0.80;0.80;;;;;;;;;;5023953;28;20472;-73
2023/08/26 10:21:38;;;;;;;0.80;0.80;;;;;;;;;;5032072;28;20437;-76
2023/08/26 10:24:04;;;;;;;1.20;1.10;;;;;;;;;;5034421;28;20426;-74
2023/08/26 10:26:30;;;;;;;1.23;0.80;;;;;;;;;;5035320;28;20446;-75
2023/08/26 10:28:56;;;;;;;0.90;0.90;;;;;;;;;;5029871;28;20836;-73
2023/08/26 10:31:31;;;;;;;1.33;1.33;;;;;;;;;;5026066;28;20434;-73
2023/08/26 10:34:02;;;;;;;1.60;1.50;;;;;;;;;;5028810;28;20434;-78
2023/08/26 10:36:29;;;;;;;1.43;1.43;;;;;;;;;;5032963;28;20787;-73
2023/08/26 10:38:56;;;;;;;1.10;1.03;;;;;;;;;;5026797;28;20461;-73
2023/08/26 10:41:22;;;;;;;1.10;1.00;;;;;;;;;;5026457;28;20672;-74
2023/08/26 10:43:52;;;;;;;0.90;0.90;;;;;;;;;;5024384;28;20581;-71
2023/08/26 10:46:19;;;;;;;2.63;2.53;;;;;;;;;;5029318;28;20430;-73
2023/08/26 10:49:00;;;;;;;0.80;0.80;;;;;;;;;;5029015;28;20591;-73
2023/08/26 10:51:27;;;;;;;1.00;1.00;;;;;;;;;;5023761;28;20515;-73
2023/08/26 10:54:00;;;;;;;1.00;1.00;;;;;;;;;;5024745;28;20442;-74
2023/08/26 10:56:28;;;;;;;0.80;0.80;;;;;;;;;;5028751;28;20517;-74
2023/08/26 10:59:00;;;;;;;0.70;0.70;;;;;;;;;;5028109;28;20453;-74
2023/08/26 11:01:28;;;;;;;0.77;0.77;;;;;;;;;;5029523;28;20553;-72
2023/08/26 11:03:55;;;;;;;0.87;0.70;;;;;;;;;;5023886;28;20449;-72
2023/08/26 11:06:23;;;;;;;0.70;0.70;;;;;;;;;;5027489;28;20446;-73
2023/08/26 11:08:58;;;;;;;1.57;1.57;;;;;;;;;;5028442;28;20528;-73
2023/08/26 11:11:25;;;;;;;3.10;3.00;;;;;;;;;;5023462;28;20873;-74
2023/08/26 11:13:51;;;;;;;1.03;1.03;;;;;;;;;;5021481;28;20953;-74
2023/08/26 11:16:18;;;;;;;1.40;1.40;;;;;;;;;;5019860;28;20465;-74
2023/08/26 11:18:44;;;;;;;1.17;1.17;;;;;;;;;;5018022;28;20473;-74
2023/08/26 11:21:10;;;;;;;3.27;1.33;;;;;;;;;;5024141;28;20534;-74
2023/08/26 11:23:36;;;;;;;1.13;1.00;;;;;;;;;;5025905;28;21021;-73
2023/08/26 11:26:06;;;;;;;0.90;0.90;;;;;;;;;;5024206;28;20471;-72
2023/08/26 11:28:32;;;;;;;0.90;0.90;;;;;;;;;;5026643;28;20462;-74
2023/08/26 11:30:58;;;;;;;1.10;1.10;;;;;;;;;;5022744;28;20476;-74
2023/08/26 11:33:26;;;;;;;1.23;1.23;;;;;;;;;;5025218;28;20885;-74
2023/08/26 11:35:52;;;;;;;0.90;0.83;;;;;;;;;;5026894;28;20514;-74
2023/08/26 11:38:18;;;;;;;0.97;0.90;;;;;;;;;;5024354;28;20468;-75
2023/08/26 11:40:45;;;;;;;1.10;1.10;;;;;;;;;;5029450;28;20428;-73
2023/08/26 11:43:12;;;;;;;0.77;0.77;;;;;;;;;;5033798;28;20445;-73
2023/08/26 11:45:42;;;;;;;1.27;0.90;;;;;;;;;;5032316;28;20477;-75
2023/08/26 11:48:11;;;;;;;1.27;1.23;;;;;;;;;;5030298;28;20430;-74
2023/08/26 11:50:37;;;;;;;1.67;1.27;;;;;;;;;;5035859;28;20561;-74
2023/08/26 11:53:03;;;;;;;1.43;1.33;;;;;;;;;;5030000;28;20442;-74
2023/08/26 11:55:30;;;;;;;1.00;1.00;;;;;;;;;;5035570;28;20960;-75
2023/08/26 11:57:57;;;;;;;0.73;0.73;;;;;;;;;;5029391;28;20456;-73
2023/08/26 12:00:25;;;;;;;1.30;1.30;;;;;;;;;;5034000;28;20451;-73
2023/08/26 12:02:52;;;;;;;1.30;1.20;;;;;;;;;;5036911;28;20442;-74
2023/08/26 12:05:19;;;;;;;1.83;1.10;;;;;;;;;;5033067;28;20486;-75
2023/08/26 12:07:54;;;;;;;1.20;1.20;;;;;;;;;;5034129;28;20497;-74
2023/08/26 12:10:20;;;;;;;1.10;1.10;;;;;;;;;;5033102;28;20422;-75
2023/08/26 12:12:49;;;;;;;1.43;1.43;;;;;;;;;;5029181;28;20454;-75
2023/08/26 12:15:16;;;;;;;1.07;1.07;;;;;;;;;;5033721;28;20999;-74
2023/08/26 12:17:49;;;;;;;0.90;0.90;;;;;;;;;;5038495;28;20553;-76
2023/08/26 12:20:23;;;;;;;1.87;1.87;;;;;;;;;;5025810;28;20491;-74
2023/08/26 12:22:49;;;;;;;1.00;1.00;;;;;;;;;;5027851;28;20449;-74
2023/08/26 12:25:19;;;;;;;1.00;1.00;;;;;;;;;;5032770;28;20450;-75
2023/08/26 12:27:45;;;;;;;1.30;1.30;;;;;;;;;;5029193;28;20442;-73
2023/08/26 12:30:11;;;;;;;0.80;0.80;;;;;;;;;;5043774;28;20869;-74
2023/08/26 12:32:37;;;;;;;0.80;0.80;;;;;;;;;;5035259;28;20485;-75
2023/08/26 12:35:04;;;;;;;2.10;1.60;;;;;;;;;;5043736;28;20474;-74
2023/08/26 12:37:30;;;;;;;2.03;1.93;;;;;;;;;;5045391;28;20449;-74
2023/08/26 12:39:57;;;;;;;1.20;1.20;;;;;;;;;;5049636;28;20443;-74
2023/08/26 12:42:23;;;;;;;0.93;0.90;;;;;;;;;;5036752;28;20512;-76
2023/08/26 12:44:49;;;;;;;1.33;1.23;;;;;;;;;;5031642;28;20548;-75
2023/08/26 12:47:15;;;;;;;1.30;1.30;;;;;;;;;;5032460;28;20539;-75
2023/08/26 12:49:44;;;;;;;1.40;1.30;;;;;;;;;;5029818;28;20458;-75
2023/08/26 12:52:10;;;;;;;1.90;1.43;;;;;;;;;;5036066;28;20508;-74
2023/08/26 12:54:36;;;;;;;1.60;1.40;;;;;;;;;;5028791;28;20441;-75
2023/08/26 12:57:02;;;;;;;2.03;1.10;;;;;;;;;;5036157;28;20597;-74
2023/08/26 12:59:28;;;;;;;1.43;1.10;;;;;;;;;;5043955;28;20529;-75
2023/08/26 13:01:54;;;;;;;1.10;1.10;;;;;;;;;;5033429;28;20544;-75
2023/08/26 13:04:20;;;;;;;1.50;1.40;;;;;;;;;;5030095;28;20453;-75
2023/08/26 13:06:46;;;;;;;1.03;1.03;;;;;;;;;;5040532;28;20433;-74
2023/08/26 13:09:12;;;;;;;1.60;1.60;;;;;;;;;;5039416;28;20507;-73
2023/08/26 13:11:38;;;;;;;1.10;1.10;;;;;;;;;;5036514;28;20936;-75
2023/08/26 13:14:04;;;;;;;1.00;1.00;;;;;;;;;;5035451;28;20479;-74
2023/08/26 13:16:30;;;;;;;0.93;0.93;;;;;;;;;;5026673;28;20998;-75
2023/08/26 13:18:56;;;;;;;1.30;1.30;;;;;;;;;;5031141;28;20569;-74
2023/08/26 13:21:21;;;;;;;1.50;1.43;;;;;;;;;;5038878;28;20888;-74
2023/08/26 13:23:47;;;;;;;3.67;1.27;;;;;;;;;;5031961;28;20426;-75
2023/08/26 13:26:13;;;;;;;0.90;0.90;;;;;;;;;;5030597;28;20433;-76
2023/08/26 13:28:39;;;;;;;1.10;1.10;;;;;;;;;;5029735;28;20449;-76
2023/08/26 13:31:08;;;;;;;1.50;1.40;;;;;;;;;;5037381;28;21036;-75
2023/08/26 13:33:34;;;;;;;1.07;1.07;;;;;;;;;;5029920;28;20469;-74
2023/08/26 13:36:01;;;;;;;1.67;1.67;;;;;;;;;;5026231;28;20465;-76
2023/08/26 13:38:27;;;;;;;1.27;1.27;;;;;;;;;;5050628;28;20430;-75
2023/08/26 13:40:53;;;;;;;3.50;2.30;;;;;;;;;;5043940;28;20920;-75
2023/08/26 13:43:19;;;;;;;1.93;1.93;;;;;;;;;;5028073;28;20450;-75
2023/08/26 13:45:47;;;;;;;4.00;3.90;;;;;;;;;;5046639;28;20444;-75
2023/08/26 13:48:13;;;;;;;3.17;3.07;;;;;;;;;;5036106;28;20446;-74
2023/08/26 13:50:39;;;;;;;1.37;1.37;;;;;;;;;;5039006;28;20453;-75
2023/08/26 13:53:05;;;;;;;1.57;1.43;;;;;;;;;;5043402;28;20473;-75
2023/08/26 13:55:31;;;;;;;3.00;0.90;;;;;;;;;;5041634;28;20461;-77
2023/08/26 13:57:57;;;;;;;1.60;1.60;;;;;;;;;;5031769;28;20440;-74
2023/08/26 14:00:23;;;;;;;1.30;1.30;;;;;;;;;;5046376;28;20477;-75
2023/08/26 14:02:49;;;;;;;1.23;1.17;;;;;;;;;;5030588;28;20473;-74
2023/08/26 14:05:15;;;;;;;1.00;1.00;;;;;;;;;;5039613;28;20448;-73
2023/08/26 14:07:42;;;;;;;1.27;1.17;;;;;;;;;;5036740;28;20477;-75
2023/08/26 14:10:08;;;;;;;1.80;1.70;;;;;;;;;;5041228;28;20555;-74
2023/08/26 14:12:38;;;;;;;3.13;2.87;;;;;;;;;;5038395;28;20449;-74
2023/08/26 14:15:04;;;;;;;1.47;1.47;;;;;;;;;;5049169;28;20444;-74
2023/08/26 14:17:30;;;;;;;2.00;1.40;;;;;;;;;;5036798;28;20430;-74
2023/08/26 14:19:56;;;;;;;0.60;0.60;;;;;;;;;;5032584;28;20575;-72
2023/08/26 14:22:22;;;;;;;1.27;1.17;;;;;;;;;;5039476;28;20426;-72
2023/08/26 14:24:48;;;;;;;0.83;0.83;;;;;;;;;;5047408;28;20954;-73
2023/08/26 14:27:15;;;;;;;0.87;0.87;;;;;;;;;;5037436;28;20498;-72
2023/08/26 14:29:42;;;;;;;1.27;1.27;;;;;;;;;;5026629;28;20967;-72
2023/08/26 14:32:08;;;;;;;1.30;1.30;;;;;;;;;;5034605;28;20442;-72
2023/08/26 14:34:34;;;;;;;1.13;1.13;;;;;;;;;;5049531;28;20470;-72
2023/08/26 14:37:00;;;;;;;1.63;1.53;;;;;;;;;;5041424;28;20952;-71
2023/08/26 14:39:27;;;;;;;1.60;1.50;;;;;;;;;;5039484;28;20433;-70